createdAt,value
2018-09-23T00:02:09.990Z,100694.00
2018-09-23T00:04:38.090Z,100687.00
2018-09-23T00:07:06.285Z,100687.00
2018-09-23T00:09:34.353Z,100689.00
2018-09-23T00:12:02.761Z,100682.00
2018-09-23T00:14:31.620Z,100671.00
2018-09-23T00:16:59.807Z,100684.00
2018-09-23T00:19:28.011Z,100674.00
2018-09-23T00:21:56.091Z,100673.00
2018-09-23T00:24:24.168Z,100676.00
2018-09-23T00:26:52.248Z,100677.00
2018-09-23T00:29:26.006Z,100680.00
2018-09-23T00:31:54.184Z,100675.00
2018-09-23T00:34:22.383Z,100661.00
2018-09-23T00:36:50.442Z,100670.00
2018-09-23T00:39:18.928Z,100656.00
2018-09-23T00:41:47.015Z,100653.00
2018-09-23T00:44:15.251Z,100641.00
2018-09-23T00:46:43.375Z,100637.00
2018-09-23T00:49:11.587Z,100628.00
2018-09-23T00:51:39.774Z,100634.00
2018-09-23T00:54:07.929Z,100631.00
2018-09-23T00:56:36.610Z,100635.00
2018-09-23T00:59:04.683Z,100618.00
2018-09-23T01:01:32.707Z,100620.00
2018-09-23T01:04:00.793Z,100611.00
2018-09-23T01:06:28.869Z,100610.00
2018-09-23T01:08:58.087Z,100608.00
2018-09-23T01:11:26.170Z,100610.00
2018-09-23T01:13:54.215Z,100608.00
2018-09-23T01:16:22.313Z,100599.00
2018-09-23T01:18:50.428Z,100595.00
2018-09-23T01:21:18.550Z,100589.00
2018-09-23T01:23:46.734Z,100582.00
2018-09-23T01:26:14.804Z,100581.00
2018-09-23T01:28:42.895Z,100565.00
2018-09-23T01:31:11.041Z,100563.00
2018-09-23T01:33:39.141Z,100571.00
2018-09-23T01:36:07.608Z,100555.00
2018-09-23T01:38:36.121Z,100569.00
2018-09-23T01:41:04.329Z,100557.00
2018-09-23T01:43:32.596Z,100550.00
2018-09-23T01:46:00.712Z,100542.00
2018-09-23T01:48:28.733Z,100537.00
2018-09-23T01:50:56.933Z,100524.00
2018-09-23T01:53:25.248Z,100523.00
2018-09-23T01:55:53.259Z,100523.00
2018-09-23T01:58:21.349Z,100519.00
2018-09-23T02:00:49.428Z,100521.00
2018-09-23T02:03:17.636Z,100513.00
2018-09-23T02:05:45.736Z,100516.00
2018-09-23T02:08:13.797Z,100513.00
2018-09-23T02:10:41.866Z,100510.00
2018-09-23T02:13:09.910Z,100507.00
2018-09-23T02:15:38.061Z,100495.00
2018-09-23T02:18:06.205Z,100491.00
2018-09-23T02:20:34.280Z,100481.00
2018-09-23T02:23:02.317Z,100456.00
2018-09-23T02:25:30.367Z,100454.00
2018-09-23T02:27:58.494Z,100442.00
2018-09-23T02:30:26.570Z,100435.00
2018-09-23T02:32:55.796Z,100444.00
2018-09-23T02:35:24.120Z,100447.00
2018-09-23T02:37:53.646Z,100442.00
2018-09-23T02:40:21.776Z,100439.00
2018-09-23T02:42:49.796Z,100428.00
2018-09-23T02:45:17.906Z,100420.00
2018-09-23T02:47:45.954Z,100416.00
2018-09-23T02:50:14.060Z,100411.00
2018-09-23T02:52:42.124Z,100409.00
2018-09-23T02:55:10.180Z,100400.00
2018-09-23T02:57:38.199Z,100397.00
2018-09-23T03:00:06.605Z,100393.00
2018-09-23T03:02:34.743Z,100391.00
2018-09-23T03:05:02.805Z,100387.00
2018-09-23T03:07:30.823Z,100364.00
2018-09-23T03:09:58.976Z,100357.00
2018-09-23T03:12:26.965Z,100342.00
2018-09-23T03:14:55.067Z,100348.00
2018-09-23T03:17:23.117Z,100335.00
2018-09-23T03:19:51.177Z,100342.00
2018-09-23T03:22:19.373Z,100348.00
2018-09-23T03:24:47.462Z,100343.00
2018-09-23T03:27:15.495Z,100326.00
2018-09-23T03:29:43.720Z,100330.00
2018-09-23T03:32:11.741Z,100321.00
2018-09-23T03:34:39.748Z,100321.00
2018-09-23T03:37:07.970Z,100314.00
2018-09-23T03:39:35.976Z,100316.00
2018-09-23T03:42:04.044Z,100315.00
2018-09-23T03:44:32.096Z,100309.00
2018-09-23T03:47:00.198Z,100309.00
2018-09-23T03:49:28.285Z,100311.00
2018-09-23T03:51:56.358Z,100297.00
2018-09-23T03:54:24.447Z,100296.00
2018-09-23T03:56:57.160Z,100264.00
2018-09-23T03:59:25.175Z,100281.00
2018-09-23T04:01:53.225Z,100283.00
2018-09-23T04:04:21.224Z,100265.00
2018-09-23T04:06:49.250Z,100265.00
2018-09-23T04:09:17.399Z,100261.00
2018-09-23T04:11:45.400Z,100258.00
2018-09-23T04:14:13.428Z,100250.00
2018-09-23T04:16:41.484Z,100249.00
2018-09-23T04:19:09.560Z,100249.00
2018-09-23T04:21:37.564Z,100244.00
2018-09-23T04:24:05.686Z,100242.00
2018-09-23T04:26:33.738Z,100241.00
2018-09-23T04:29:01.797Z,100234.00
2018-09-23T04:31:29.837Z,100227.00
2018-09-23T04:33:57.972Z,100229.00
2018-09-23T04:36:26.041Z,100215.00
2018-09-23T04:38:54.153Z,100218.00
2018-09-23T04:41:22.276Z,100213.00
2018-09-23T04:43:50.347Z,100211.00
2018-09-23T04:46:18.423Z,100206.00
2018-09-23T04:48:46.776Z,100211.00
2018-09-23T04:51:14.870Z,100207.00
2018-09-23T04:53:42.861Z,100208.00
2018-09-23T04:56:10.956Z,100206.00
2018-09-23T04:58:39.026Z,100199.00
2018-09-23T05:01:07.248Z,100208.00
2018-09-23T05:03:35.308Z,100201.00
2018-09-23T05:06:03.459Z,100196.00
2018-09-23T05:08:31.556Z,100184.00
2018-09-23T05:10:59.594Z,100180.00
2018-09-23T05:13:27.812Z,100174.00
2018-09-23T05:15:55.901Z,100163.00
2018-09-23T05:18:23.993Z,100164.00
2018-09-23T05:20:52.123Z,100168.00
2018-09-23T05:23:20.228Z,100160.00
2018-09-23T05:25:48.828Z,100157.00
2018-09-23T05:28:16.976Z,100153.00
2018-09-23T05:30:45.185Z,100148.00
2018-09-23T05:33:13.456Z,100146.00
2018-09-23T05:35:41.603Z,100139.00
2018-09-23T05:38:09.708Z,100135.00
2018-09-23T05:40:37.958Z,100139.00
2018-09-23T05:43:06.046Z,100127.00
2018-09-23T05:45:34.198Z,100128.00
2018-09-23T05:48:02.465Z,100130.00
2018-09-23T05:50:30.561Z,100125.00
2018-09-23T05:52:58.818Z,100123.00
2018-09-23T05:55:26.924Z,100113.00
2018-09-23T05:57:55.144Z,100106.00
2018-09-23T06:00:23.379Z,100099.00
2018-09-23T06:02:51.515Z,100102.00
2018-09-23T06:05:19.531Z,100101.00
2018-09-23T06:07:47.611Z,100094.00
2018-09-23T06:10:15.725Z,100081.00
2018-09-23T06:12:43.764Z,100080.00
2018-09-23T06:15:11.817Z,100068.00
2018-09-23T06:17:39.925Z,100065.00
2018-09-23T06:20:08.317Z,100079.00
2018-09-23T06:22:36.437Z,100075.00
2018-09-23T06:25:04.639Z,100066.00
2018-09-23T06:27:32.871Z,100070.00
2018-09-23T06:30:00.976Z,100076.00
2018-09-23T06:32:29.133Z,100069.00
2018-09-23T06:34:57.280Z,100070.00
2018-09-23T06:37:25.398Z,100060.00
2018-09-23T06:39:53.562Z,100060.00
2018-09-23T06:42:21.678Z,100051.00
2018-09-23T06:44:49.973Z,100046.00
2018-09-23T06:47:18.220Z,100041.00
2018-09-23T06:49:46.433Z,100037.00
2018-09-23T06:52:14.702Z,100038.00
2018-09-23T06:54:42.772Z,100051.00
2018-09-23T06:57:10.921Z,100038.00
2018-09-23T06:59:38.982Z,100029.00
2018-09-23T07:02:07.137Z,100028.00
2018-09-23T07:04:35.341Z,100029.00
2018-09-23T07:07:03.434Z,100016.00
2018-09-23T07:09:31.528Z,100025.00
2018-09-23T07:11:59.631Z,100022.00
2018-09-23T07:14:27.805Z,100016.00
2018-09-23T07:16:56.477Z,100014.00
2018-09-23T07:19:24.637Z,100014.00
2018-09-23T07:21:52.848Z,100015.00
2018-09-23T07:24:21.052Z,100022.00
2018-09-23T07:26:49.190Z,100018.00
2018-09-23T07:29:17.295Z,100011.00
2018-09-23T07:31:46.082Z,100005.00
2018-09-23T07:34:14.221Z,99982.00
2018-09-23T07:36:42.480Z,100000.00
2018-09-23T07:39:10.860Z,100004.00
2018-09-23T07:41:39.383Z,100000.00
2018-09-23T07:44:08.135Z,99988.00
2018-09-23T07:46:36.328Z,99997.00
2018-09-23T07:49:04.595Z,99994.00
2018-09-23T07:51:33.721Z,99985.00
2018-09-23T07:54:02.404Z,99987.00
2018-09-23T07:56:30.548Z,99981.00
2018-09-23T07:58:58.692Z,99983.00
2018-09-23T08:01:26.901Z,99981.00
2018-09-23T08:03:56.037Z,99974.00
2018-09-23T08:06:24.182Z,99966.00
2018-09-23T08:08:52.306Z,99973.00
2018-09-23T08:11:20.410Z,99971.00
2018-09-23T08:13:48.805Z,99970.00
2018-09-23T08:16:16.697Z,99971.00
2018-09-23T08:18:45.075Z,99965.00
2018-09-23T08:21:13.212Z,99961.00
2018-09-23T08:23:41.390Z,99958.00
2018-09-23T08:26:09.840Z,99957.00
2018-09-23T08:28:37.955Z,99959.00
2018-09-23T08:31:06.139Z,99958.00
2018-09-23T08:33:35.109Z,99958.00
2018-09-23T08:36:03.264Z,99960.00
2018-09-23T08:38:31.769Z,99940.00
2018-09-23T08:41:01.139Z,99941.00
2018-09-23T08:43:29.388Z,99939.00
2018-09-23T08:45:57.995Z,99940.00
2018-09-23T08:48:26.649Z,99932.00
2018-09-23T08:50:54.864Z,99929.00
2018-09-23T08:53:24.830Z,99929.00
2018-09-23T08:55:53.042Z,99922.00
2018-09-23T08:58:21.457Z,99963.00
2018-09-23T09:00:49.632Z,99934.00
2018-09-23T09:03:17.854Z,99929.00
2018-09-23T09:05:46.108Z,99908.00
2018-09-23T09:08:15.224Z,99917.00
2018-09-23T09:10:43.497Z,99902.00
2018-09-23T09:13:11.776Z,99889.00
2018-09-23T09:15:40.042Z,99891.00
2018-09-23T09:18:08.429Z,99885.00
2018-09-23T09:20:37.203Z,99862.00
2018-09-23T09:23:05.523Z,99862.00
2018-09-23T09:25:34.470Z,99857.00
2018-09-23T09:28:02.784Z,99858.00
2018-09-23T09:30:31.149Z,99843.00
2018-09-23T09:32:59.401Z,99847.00
2018-09-23T09:35:27.623Z,99826.00
2018-09-23T09:37:55.776Z,99827.00
2018-09-23T09:40:24.011Z,99826.00
2018-09-23T09:42:52.142Z,99825.00
2018-09-23T09:45:20.393Z,99825.00
2018-09-23T09:47:48.576Z,99810.00
2018-09-23T09:50:16.865Z,99807.00
2018-09-23T09:52:45.086Z,99801.00
2018-09-23T09:55:13.374Z,99821.00
2018-09-23T09:57:41.699Z,99801.00
2018-09-23T10:00:09.968Z,99797.00
2018-09-23T10:02:38.198Z,99804.00
2018-09-23T10:05:06.593Z,99795.00
2018-09-23T10:07:35.723Z,99787.00
2018-09-23T10:10:04.035Z,99781.00
2018-09-23T10:12:32.906Z,99787.00
2018-09-23T10:15:01.623Z,99779.00
2018-09-23T10:17:29.917Z,99788.00
2018-09-23T10:19:58.410Z,99778.00
2018-09-23T10:22:26.642Z,99762.00
2018-09-23T10:24:55.114Z,99772.00
2018-09-23T10:27:24.008Z,99756.00
2018-09-23T10:29:52.305Z,99743.00
2018-09-23T10:32:20.605Z,99729.00
2018-09-23T10:34:49.719Z,99717.00
2018-09-23T10:37:17.892Z,99709.00
2018-09-23T10:39:46.262Z,99713.00
2018-09-23T10:42:14.447Z,99701.00
2018-09-23T10:44:42.930Z,99702.00
2018-09-23T10:47:11.048Z,99689.00
2018-09-23T10:49:39.225Z,99671.00
2018-09-23T10:52:07.862Z,99677.00
2018-09-23T10:54:36.965Z,99659.00
2018-09-23T10:57:05.220Z,99665.00
2018-09-23T10:59:33.520Z,99651.00
2018-09-23T11:02:01.685Z,99676.00
2018-09-23T11:04:29.965Z,99646.00
2018-09-23T11:06:58.013Z,99644.00
2018-09-23T11:09:26.216Z,99636.00
2018-09-23T11:11:54.377Z,99623.00
2018-09-23T11:14:22.637Z,99604.00
2018-09-23T11:16:50.880Z,99601.00
2018-09-23T11:19:19.124Z,99598.00
2018-09-23T11:21:47.276Z,99583.00
2018-09-23T11:24:15.599Z,99579.00
2018-09-23T11:26:43.766Z,99560.00
2018-09-23T11:29:11.864Z,99552.00
2018-09-23T11:31:40.163Z,99551.00
2018-09-23T11:34:08.445Z,99528.00
2018-09-23T11:36:36.722Z,99503.00
2018-09-23T11:39:08.904Z,99503.00
2018-09-23T11:41:37.117Z,99495.00
2018-09-23T11:44:05.459Z,99488.00
2018-09-23T11:46:33.729Z,99480.00
2018-09-23T11:49:02.685Z,99472.00
2018-09-23T11:51:30.822Z,99486.00
2018-09-23T11:53:59.288Z,99459.00
2018-09-23T11:56:27.534Z,99444.00
2018-09-23T11:58:55.877Z,99448.00
2018-09-23T12:01:24.096Z,99439.00
2018-09-23T12:03:52.295Z,99438.00
2018-09-23T12:06:20.577Z,99411.00
2018-09-23T12:08:52.053Z,99399.00
2018-09-23T12:11:20.969Z,99374.00
2018-09-23T12:13:49.178Z,99364.00
2018-09-23T12:16:17.571Z,99349.00
2018-09-23T12:18:45.814Z,99339.00
2018-09-23T12:21:14.086Z,99346.00
2018-09-23T12:23:42.343Z,99330.00
2018-09-23T12:26:10.683Z,99311.00
2018-09-23T12:28:44.503Z,99300.00
2018-09-23T12:31:12.746Z,99296.00
2018-09-23T12:33:40.953Z,99309.00
2018-09-23T12:36:09.328Z,99289.00
2018-09-23T12:38:37.605Z,99275.00
2018-09-23T12:41:06.050Z,99284.00
2018-09-23T12:43:35.556Z,99289.00
2018-09-23T12:46:04.082Z,99285.00
2018-09-23T12:48:32.445Z,99286.00
2018-09-23T12:51:00.851Z,99264.00
2018-09-23T12:53:29.118Z,99252.00
2018-09-23T12:55:57.589Z,99253.00
2018-09-23T12:58:26.238Z,99209.00
2018-09-23T13:00:54.475Z,99224.00
2018-09-23T13:03:22.869Z,99231.00
2018-09-23T13:05:51.321Z,99200.00
2018-09-23T13:08:25.838Z,99220.00
2018-09-23T13:10:57.305Z,99242.00
2018-09-23T13:13:25.793Z,99209.00
2018-09-23T13:15:54.005Z,99220.00
2018-09-23T13:18:22.348Z,99175.00
2018-09-23T13:20:50.522Z,99155.00
2018-09-23T13:23:18.783Z,99146.00
2018-09-23T13:25:47.265Z,99142.00
2018-09-23T13:28:15.676Z,99099.00
2018-09-23T13:30:44.458Z,99106.00
2018-09-23T13:33:12.797Z,99120.00
2018-09-23T13:35:40.968Z,99094.00
2018-09-23T13:38:09.211Z,99081.00
2018-09-23T13:40:38.556Z,99087.00
2018-09-23T13:43:07.054Z,99076.00
2018-09-23T13:45:35.383Z,98982.00
2018-09-23T13:48:03.800Z,99081.00
2018-09-23T13:50:32.019Z,99073.00
2018-09-23T13:53:00.290Z,99059.00
2018-09-23T13:55:28.804Z,99059.00
2018-09-23T13:57:57.067Z,99065.00
2018-09-23T14:00:25.283Z,99076.00
2018-09-23T14:02:53.517Z,99012.00
2018-09-23T14:05:21.820Z,99023.00
2018-09-23T14:07:51.173Z,98991.00
2018-09-23T14:10:19.449Z,99037.00
2018-09-23T14:12:47.740Z,99038.00
2018-09-23T14:15:16.098Z,99038.00
2018-09-23T14:17:44.449Z,99034.00
2018-09-23T14:20:13.077Z,99041.00
2018-09-23T14:22:41.310Z,99040.00
2018-09-23T14:25:09.658Z,99042.00
2018-09-23T14:27:38.146Z,99072.00
2018-09-23T14:30:06.919Z,99104.00
2018-09-23T14:32:35.337Z,99242.00
2018-09-23T14:35:03.811Z,232234.00
2018-09-23T14:37:32.205Z,232234.00
2018-09-23T14:40:00.712Z,232234.00
2018-09-23T14:42:29.026Z,232234.00
2018-09-23T14:44:58.447Z,232234.00
2018-09-23T14:47:26.940Z,232234.00
2018-09-23T14:49:56.554Z,232234.00
2018-09-23T14:52:25.245Z,232234.00
2018-09-23T14:54:53.687Z,232234.00
2018-09-23T14:57:22.056Z,232234.00
2018-09-23T14:59:54.194Z,232234.00
2018-09-23T15:02:19.151Z,232234.00
2018-09-23T15:04:47.581Z,232234.00
2018-09-23T15:07:16.035Z,232234.00
2018-09-23T15:09:45.850Z,232234.00
2018-09-23T15:12:14.193Z,232234.00
2018-09-23T15:14:42.614Z,232234.00
2018-09-23T15:17:11.192Z,232234.00
2018-09-23T15:19:39.849Z,232234.00
2018-09-23T15:22:08.782Z,232234.00
2018-09-23T15:24:37.734Z,232234.00
2018-09-23T15:27:06.611Z,232234.00
2018-09-23T15:29:35.412Z,232234.00
2018-09-23T15:32:04.227Z,232234.00
2018-09-23T15:34:33.285Z,232234.00
2018-09-23T15:37:01.674Z,232234.00
2018-09-23T15:39:30.003Z,232234.00
2018-09-23T15:41:59.022Z,232234.00
2018-09-23T15:44:27.842Z,232234.00
2018-09-23T15:46:57.281Z,232234.00
2018-09-23T15:49:26.047Z,232234.00
2018-09-23T15:51:54.554Z,232234.00
2018-09-23T15:54:23.154Z,232234.00
2018-09-23T15:56:52.258Z,232234.00
2018-09-23T15:59:20.633Z,232234.00
2018-09-23T16:01:50.139Z,232234.00
2018-09-23T16:04:18.949Z,232234.00
2018-09-23T16:06:47.865Z,232234.00
2018-09-23T16:09:16.678Z,232234.00
2018-09-23T16:11:45.271Z,232234.00
2018-09-23T16:14:13.670Z,232234.00
2018-09-23T16:16:41.994Z,232234.00
2018-09-23T16:19:10.318Z,232234.00
2018-09-23T16:21:38.500Z,232234.00
2018-09-23T16:24:06.895Z,232234.00
2018-09-23T16:26:35.234Z,232234.00
2018-09-23T16:29:03.677Z,232234.00
2018-09-23T16:31:31.986Z,232234.00
2018-09-23T16:34:00.370Z,232234.00
2018-09-23T16:36:28.696Z,232234.00
2018-09-23T16:38:57.123Z,99660.00
2018-09-23T16:41:25.471Z,99672.00
2018-09-23T16:43:53.859Z,99653.00
2018-09-23T16:46:22.090Z,99689.00
2018-09-23T16:48:50.370Z,99707.00
2018-09-23T16:51:18.799Z,99709.00
2018-09-23T16:53:47.085Z,99698.00
2018-09-23T16:56:15.358Z,99722.00
2018-09-23T16:58:43.795Z,99721.00
2018-09-23T17:01:12.113Z,99722.00
2018-09-23T17:03:40.307Z,99721.00
2018-09-23T17:06:08.674Z,99730.00
2018-09-23T17:08:36.982Z,99720.00
2018-09-23T17:11:05.361Z,99772.00
2018-09-23T17:13:33.696Z,99785.00
2018-09-23T17:16:02.109Z,99791.00
2018-09-23T17:18:30.457Z,99831.00
2018-09-23T17:20:58.822Z,99840.00
2018-09-23T17:23:27.211Z,99900.00
2018-09-23T17:25:55.500Z,232234.00
2018-09-23T17:28:24.209Z,99906.00
2018-09-23T17:30:52.644Z,99934.00
2018-09-23T17:33:20.938Z,99956.00
2018-09-23T17:35:49.348Z,99948.00
2018-09-23T17:38:18.130Z,99930.00
2018-09-23T17:40:46.588Z,99959.00
2018-09-23T17:43:14.922Z,99976.00
2018-09-23T17:45:43.322Z,99983.00
2018-09-23T17:48:11.765Z,99963.00
2018-09-23T17:50:40.026Z,99983.00
2018-09-23T17:53:08.328Z,99959.00
2018-09-23T17:55:36.757Z,99973.00
2018-09-23T17:58:05.453Z,99993.00
2018-09-23T18:00:33.869Z,100018.00
2018-09-23T18:03:02.183Z,100050.00
2018-09-23T18:05:30.541Z,100045.00
2018-09-23T18:07:58.828Z,100062.00
2018-09-23T18:10:27.106Z,100054.00
2018-09-23T18:12:55.467Z,100093.00
2018-09-23T18:15:23.801Z,100101.00
2018-09-23T18:17:52.124Z,100104.00
2018-09-23T18:20:20.600Z,100128.00
2018-09-23T18:22:49.022Z,100149.00
2018-09-23T18:25:17.267Z,100163.00
2018-09-23T18:27:45.926Z,100176.00
2018-09-23T18:30:14.225Z,100174.00
2018-09-23T18:32:42.492Z,100192.00
2018-09-23T18:35:11.326Z,100194.00
2018-09-23T18:37:39.674Z,100205.00
2018-09-23T18:40:08.145Z,100250.00
2018-09-23T18:42:36.643Z,100226.00
2018-09-23T18:45:05.057Z,100256.00
2018-09-23T18:47:33.532Z,100287.00
2018-09-23T18:50:02.030Z,100293.00
2018-09-23T18:52:30.410Z,100293.00
2018-09-23T18:55:04.465Z,100314.00
2018-09-23T18:57:32.822Z,100323.00
2018-09-23T19:00:01.200Z,100344.00
2018-09-23T19:02:29.568Z,100369.00
2018-09-23T19:04:58.255Z,100385.00
2018-09-23T19:07:26.722Z,100398.00
2018-09-23T19:09:55.316Z,100424.00
2018-09-23T19:12:23.579Z,100426.00
2018-09-23T19:14:51.992Z,100444.00
2018-09-23T19:17:20.311Z,100460.00
2018-09-23T19:19:54.383Z,100473.00
2018-09-23T19:22:28.356Z,100482.00
2018-09-23T19:24:57.400Z,100506.00
2018-09-23T19:27:25.783Z,100509.00
2018-09-23T19:29:54.109Z,100514.00
2018-09-23T19:32:22.604Z,100498.00
2018-09-23T19:34:51.003Z,100506.00
2018-09-23T19:37:19.369Z,100514.00
2018-09-23T19:39:47.703Z,100522.00
2018-09-23T19:42:16.058Z,100524.00
2018-09-23T19:44:44.395Z,100525.00
2018-09-23T19:47:12.983Z,100544.00
2018-09-23T19:49:41.304Z,100564.00
2018-09-23T19:52:09.562Z,100567.00
2018-09-23T19:54:37.940Z,100562.00
2018-09-23T19:57:06.395Z,100555.00
2018-09-23T19:59:34.825Z,100570.00
2018-09-23T20:02:03.165Z,100576.00
2018-09-23T20:04:31.437Z,100578.00
2018-09-23T20:06:59.871Z,100587.00
2018-09-23T20:09:28.175Z,100593.00
2018-09-23T20:11:56.495Z,100591.00
2018-09-23T20:14:24.873Z,100600.00
2018-09-23T20:16:53.161Z,100622.00
2018-09-23T20:19:24.877Z,100628.00
2018-09-23T20:21:53.352Z,100631.00
2018-09-23T20:24:22.064Z,100646.00
2018-09-23T20:26:50.793Z,100669.00
2018-09-23T20:29:19.153Z,100691.00
2018-09-23T20:31:47.939Z,100709.00
2018-09-23T20:34:17.714Z,100731.00
2018-09-23T20:36:46.526Z,100750.00
2018-09-23T20:39:15.421Z,100764.00
2018-09-23T20:41:43.735Z,100775.00
2018-09-23T20:44:12.121Z,100785.00
2018-09-23T20:46:41.014Z,100794.00
2018-09-23T20:49:09.345Z,100793.00
2018-09-23T20:51:38.253Z,100797.00
2018-09-23T20:54:06.597Z,100812.00
2018-09-23T20:56:34.902Z,100819.00
2018-09-23T20:59:03.190Z,100822.00
2018-09-23T21:01:32.711Z,100832.00
2018-09-23T21:04:01.503Z,100833.00
2018-09-23T21:06:29.895Z,100856.00
2018-09-23T21:08:58.719Z,100866.00
2018-09-23T21:11:27.150Z,100872.00
2018-09-23T21:13:56.157Z,100876.00
2018-09-23T21:16:25.144Z,100885.00
2018-09-23T21:18:53.610Z,100890.00
2018-09-23T21:21:23.422Z,100881.00
2018-09-23T21:23:51.753Z,100883.00
2018-09-23T21:26:20.342Z,100894.00
2018-09-23T21:28:49.429Z,100906.00
2018-09-23T21:31:17.965Z,100908.00
2018-09-23T21:33:46.227Z,100921.00
2018-09-23T21:36:16.726Z,100924.00
2018-09-23T21:38:47.054Z,100924.00
2018-09-23T21:41:16.518Z,100934.00
2018-09-23T21:43:45.906Z,100934.00
2018-09-23T21:46:14.096Z,100954.00
2018-09-23T21:48:43.103Z,100947.00
2018-09-23T21:51:11.292Z,100984.00
2018-09-23T21:53:40.775Z,100968.00
2018-09-23T21:56:09.147Z,100965.00
2018-09-23T21:58:37.403Z,100971.00
2018-09-23T22:01:06.952Z,100988.00
2018-09-23T22:03:35.356Z,100986.00
2018-09-23T22:06:03.540Z,100992.00
2018-09-23T22:08:31.768Z,101007.00
2018-09-23T22:11:00.103Z,101004.00
2018-09-23T22:13:28.642Z,101003.00
2018-09-23T22:15:57.742Z,101015.00
2018-09-23T22:18:25.948Z,101011.00
2018-09-23T22:20:55.748Z,101015.00
2018-09-23T22:23:24.846Z,101016.00
2018-09-23T22:25:53.377Z,101014.00
2018-09-23T22:28:22.488Z,101028.00
2018-09-23T22:30:51.220Z,101031.00
2018-09-23T22:33:19.315Z,101044.00
2018-09-23T22:35:47.557Z,101041.00
2018-09-23T22:38:15.849Z,101046.00
2018-09-23T22:40:45.339Z,101061.00
2018-09-23T22:43:14.324Z,101061.00
2018-09-23T22:45:43.808Z,101074.00
2018-09-23T22:48:12.072Z,101075.00
2018-09-23T22:50:40.487Z,101075.00
2018-09-23T22:53:09.195Z,101086.00
2018-09-23T22:55:38.794Z,101110.00
2018-09-23T22:58:07.314Z,101123.00
2018-09-23T23:00:36.088Z,101141.00
2018-09-23T23:03:04.532Z,101127.00
2018-09-23T23:05:35.068Z,101135.00
2018-09-23T23:08:03.731Z,101143.00
2018-09-23T23:10:31.933Z,101150.00
2018-09-23T23:13:00.143Z,101161.00
2018-09-23T23:15:28.417Z,101161.00
2018-09-23T23:17:56.608Z,101176.00
2018-09-23T23:20:24.827Z,101182.00
2018-09-23T23:22:53.078Z,101195.00
2018-09-23T23:25:21.275Z,101198.00
2018-09-23T23:27:49.488Z,101194.00
2018-09-23T23:30:17.624Z,101197.00
2018-09-23T23:32:45.801Z,101204.00
2018-09-23T23:35:13.991Z,101220.00
2018-09-23T23:37:43.063Z,101206.00
2018-09-23T23:40:11.168Z,101218.00
2018-09-23T23:42:39.451Z,101235.00
2018-09-23T23:45:07.683Z,101230.00
2018-09-23T23:47:35.826Z,101235.00
2018-09-23T23:50:04.152Z,101248.00
2018-09-23T23:52:32.280Z,101248.00
2018-09-23T23:55:00.442Z,101265.00
2018-09-23T23:57:28.563Z,101257.00
2018-09-23T23:59:56.771Z,101270.00
